Flight Track Log - Related Links

Times and Time Zones

All times are in EDT time to prevent confusion due to time zone crossing. See the VIR19 flight status page for this flight to view local times or setup timezone preferences in your user account.

Time Position Orientation Groundspeed Altitude Reporting Facility
EDT Latitude Longitude Course Direction KTS MPH feet Rate Location/Type
Mon 07:24:20 AM 51.4665 -0.4853 88° East 169 194 300  Level FlightAware ADS-B (EGLF / FAB)
Mon 07:24:35 AM 51.4653 -0.4167 91° East 172 198 600 1,333 Climbing FlightAware ADS-B (EGLF / FAB)
Mon 07:24:38 AM 51.4649 -0.4115 99° East 174 200 700 2,000 Climbing FlightAware ADS-B
Mon 07:24:41 AM 51.4643 -0.4078 106° East 176 203 800 1,846 Climbing FlightAware ADS-B
Mon 07:24:51 AM 51.4601 -0.3963 132° Southeast 184 212 1,100 1,500 Climbing FlightAware ADS-B
Mon 07:25:01 AM 51.4527 -0.3890 161° South 192 221 1,300 1,500 Climbing FlightAware ADS-B
Mon 07:25:07 AM 51.4468 -0.3872 165° South 195 224 1,500 1,500 Climbing FlightAware ADS-B
Mon 07:25:09 AM 51.4463 -0.3871 175° South 200 230 1,500 857 Level FlightAware ADS-B (EGLC / LCY)
Mon 07:25:14 AM 51.4407 -0.3878 186° South 206 237 1,600 857 Climbing FlightAware ADS-B (EGLC / LCY)
Mon 07:25:16 AM 51.4384 -0.3886 193° South 211 243 1,600  Level FlightAware ADS-B
Mon 07:25:19 AM 51.4374 -0.3890 200° South 215 247 1,600 1,333 Level FlightAware ADS-B (EGLC / LCY)
Mon 07:25:25 AM 51.4301 -0.3947 210° Southwest 220 253 1,800 2,000 Climbing FlightAware ADS-B
Mon 07:25:28 AM 51.4278 -0.3974 214° Southwest 224 258 1,900 1,385 Climbing FlightAware ADS-B
Mon 07:25:38 AM 51.4191 -0.4072 217° Southwest 234 269 2,100 1,000 Climbing FlightAware ADS-B
Mon 07:25:40 AM 51.4169 -0.4093 217° Southwest 235 270 2,100 1,091 Level FlightAware ADS-B
Mon 07:25:49 AM 51.4099 -0.4197 223° Southwest 242 278 2,300 1,286 Climbing FlightAware ADS-B
Mon 07:25:54 AM 51.4057 -0.4266 232° Southwest 247 284 2,400 667 Climbing FlightAware ADS-B
Mon 07:25:58 AM 51.4037 -0.4327 241° Southwest 251 289 2,400  Level FlightAware ADS-B
Mon 07:25:59 AM 51.4032 -0.4344 243° Southwest 251 289 2,400 2,000 Level FlightAware ADS-B
Mon 07:26:01 AM 51.4021 -0.4379 247° West 252 290 2,500 2,000 Climbing FlightAware ADS-B
Mon 07:26:02 AM 51.4017 -0.4395 243° Southwest 251 289 2,500 1,500 Level FlightAware ADS-B (KALB)
Mon 07:26:05 AM 51.4007 -0.4449 254° West 253 291 2,600 1,000 Climbing FlightAware ADS-B
Mon 07:26:08 AM 51.3998 -0.4504 259° West 255 293 2,600 857 Level FlightAware ADS-B
Mon 07:26:12 AM 51.3993 -0.4561 263° West 256 295 2,700 1,714 Climbing FlightAware ADS-B
Mon 07:26:15 AM 51.3990 -0.4637 267° West 258 297 2,800 1,000 Climbing FlightAware ADS-B (EGLF / FAB)
Mon 07:26:18 AM 51.3989 -0.4694 267° West 260 299 2,800 667 Level FlightAware ADS-B
Mon 07:26:24 AM 51.3988 -0.4713 269° West 265 305 2,900 -500 Climbing FlightAware ADS-B (EGLF / FAB)
Mon 07:26:30 AM 51.3998 -0.4523 260° West 255 293 2,700 1,333 Descending FlightAware ADS-B
Mon 07:26:33 AM 51.3986 -0.4991 270° West 273 314 3,100 3,750 Climbing FlightAware ADS-B
Mon 07:26:38 AM 51.3985 -0.5094 270° West 278 320 3,200 1,500 Climbing FlightAware ADS-B
Mon 07:26:49 AM 51.3983 -0.5302 269° West 284 327 3,500 1,875 Climbing FlightAware ADS-B
Mon 07:26:54 AM 51.3983 -0.5408 270° West 287 330 3,700 2,400 Climbing FlightAware ADS-B (EGLF / FAB)
Mon 07:27:04 AM 51.3982 -0.5643 270° West 289 333 4,100 2,824 Climbing FlightAware ADS-B
Mon 07:27:11 AM 51.3982 -0.5813 270° West 288 331 4,500 3,000 Climbing FlightAware ADS-B
Mon 07:27:20 AM 51.3983 -0.5983 270° West 287 330 4,900 2,769 Climbing FlightAware ADS-B
Mon 07:27:24 AM 51.3983 -0.6025 270° West 287 330 5,100 3,000 Climbing FlightAware ADS-B
Mon 07:27:28 AM 51.3984 -0.6152 270° West 287 330 5,300 2,182 Climbing FlightAware ADS-B
Mon 07:27:35 AM 51.3985 -0.6303 271° West 286 329 5,500 2,400 Climbing FlightAware ADS-B
Mon 07:27:43 AM 51.3987 -0.6451 271° West 285 328 5,900 3,000 Climbing FlightAware ADS-B
Mon 07:27:51 AM 51.3991 -0.6641 272° West 286 329 6,300 2,667 Climbing FlightAware ADS-B
Mon 07:27:52 AM 51.3991 -0.6640 272° West 286 329 6,300 3,000 Level FlightAware ADS-B (EGLC / LCY)
Mon 07:27:55 AM 51.3991 -0.6661 273° West 288 331 6,500 2,250 Climbing FlightAware ADS-B (EGLC / LCY)
Mon 07:28:08 AM 51.4002 -0.7003 273° West 288 331 6,900 2,118 Climbing FlightAware ADS-B
Mon 07:28:12 AM 51.3998 -0.6875 273° West 289 333 7,100 2,625 Climbing FlightAware ADS-B (EGLC / LCY)
Mon 07:28:24 AM 51.4014 -0.7323 273° West 288 331 7,600 2,800 Climbing FlightAware ADS-B
Mon 07:28:27 AM 51.4017 -0.7406 273° West 287 330 7,800 2,308 Climbing FlightAware ADS-B
Mon 07:28:37 AM 51.4025 -0.7619 273° West 289 333 8,100 2,000 Climbing FlightAware ADS-B
Mon 07:28:42 AM 51.4028 -0.7728 273° West 290 334 8,300 2,250 Climbing FlightAware ADS-B
Mon 07:28:53 AM 51.4034 -0.7941 273° West 291 335 8,700 2,400 Climbing FlightAware ADS-B
Mon 07:28:57 AM 51.4038 -0.8050 273° West 291 335 8,900 2,571 Climbing FlightAware ADS-B (EGLF / FAB)
Mon 07:29:00 AM 51.4039 -0.8114 271° West 291 335 9,000 3,000 Climbing FlightAware ADS-B (LERS / REU)
Mon 07:29:03 AM 51.4041 -0.8177 273° West 291 335 9,200 3,000 Climbing FlightAware ADS-B (EGDM)
Mon 07:29:08 AM 51.4044 -0.8287 273° West 290 334 9,400 2,250 Climbing FlightAware ADS-B
Mon 07:29:11 AM 51.4047 -0.8349 271° West 290 334 9,500 1,875 Climbing FlightAware ADS-B (LERS / REU)
Mon 07:29:24 AM 51.4056 -0.8629 273° West 291 335 9,900 2,625 Climbing FlightAware ADS-B
Mon 07:29:27 AM 51.4058 -0.8673 273° West 293 337 10,200 2,000 Climbing FlightAware ADS-B
Mon 07:29:42 AM 51.4067 -0.9023 272° West 299 344 10,500 947 Climbing FlightAware ADS-B (EGDM)
Mon 07:29:46 AM 51.4069 -0.9090 273° West 302 348 10,500 750 Level FlightAware ADS-B
Mon 07:29:50 AM 51.4076 -0.9202 277° West 307 353 10,600 1,000 Climbing FlightAware ADS-B
Mon 07:29:52 AM 51.4079 -0.9246 276° West 306 352 10,600  Level FlightAware ADS-B (EGLC / LCY)
Mon 07:29:56 AM 51.4092 -0.9338 282° West 312 359 10,600 1,091 Level FlightAware ADS-B
Mon 07:30:03 AM 51.4119 -0.9494 286° West 318 366 10,800 1,333 Climbing FlightAware ADS-B (EGDM)
Mon 07:30:05 AM 51.4126 -0.9541 287° West 319 367 10,800 1,500 Level FlightAware ADS-B
Mon 07:30:07 AM 51.4128 -0.9541 279° West 310 357 10,900 1,091 Climbing FlightAware ADS-B (EGHS)
Mon 07:30:16 AM 51.4167 -0.9744 289° West 329 379 11,000 500 Climbing FlightAware ADS-B
Mon 07:30:19 AM 51.4195 -0.9860 287° West 327 376 11,000 750 Level FlightAware ADS-B
Mon 07:30:32 AM 51.4262 -1.0169 290° West 344 396 11,200 632 Climbing FlightAware ADS-B
Mon 07:30:38 AM 51.4290 -1.0313 289° West 347 399 11,200  Level FlightAware ADS-B
Mon 07:30:39 AM 51.4293 -1.0315 289° West 347 399 11,200 1,500 Level FlightAware ADS-B (EGLC / LCY)
Mon 07:30:46 AM 51.4335 -1.0510 288° West 351 404 11,400 1,667 Climbing FlightAware ADS-B (EGDJ / UPV)
Mon 07:30:57 AM 51.4396 -1.0783 290° West 358 412 11,700 1,286 Climbing FlightAware ADS-B (EGLF / FAB)
Mon 07:31:00 AM 51.4416 -1.0857 289° West 360 414 11,700 375 Level FlightAware ADS-B (EGHI / SOU)
Mon 07:31:13 AM 51.4488 -1.1191 290° West 372 428 11,800 889 Climbing FlightAware ADS-B
Mon 07:31:27 AM 51.4569 -1.1559 290° West 381 438 12,100 1,200 Climbing FlightAware ADS-B
Mon 07:31:33 AM 51.4606 -1.1723 290° West 383 441 12,200 1,125 Climbing FlightAware ADS-B
Mon 07:31:43 AM 51.4664 -1.1993 289° West 389 448 12,400 1,765 Climbing FlightAware ADS-B
Mon 07:31:50 AM 51.4703 -1.2158 288° West 387 445 12,700 2,400 Climbing FlightAware ADS-B (EGHI / SOU)
Mon 07:31:53 AM 51.4721 -1.2267 289° West 390 449 12,800 2,000 Climbing FlightAware ADS-B (EGLF / FAB)
Mon 07:31:59 AM 51.4756 -1.2429 288° West 387 445 13,000 2,000 Climbing FlightAware ADS-B
Mon 07:32:02 AM 51.4775 -1.2510 288° West 387 445 13,100 1,600 Climbing FlightAware ADS-B (EGNR / CEG)
Mon 07:32:14 AM 51.4845 -1.2814 289° West 393 452 13,400 1,600 Climbing FlightAware ADS-B
Mon 07:32:17 AM 51.4858 -1.2895 288° West 387 445 13,500 2,182 Climbing FlightAware ADS-B (EGNR / CEG)
Mon 07:32:25 AM 51.4919 -1.3146 290° West 396 456 13,800 2,222 Climbing FlightAware ADS-B
Mon 07:32:44 AM 51.5029 -1.3669 289° West 395 455 14,500 2,400 Climbing FlightAware ADS-B
Mon 07:32:45 AM 51.5035 -1.3700 290° West 395 455 14,600 1,548 Climbing FlightAware ADS-B
Mon 07:33:15 AM 51.5218 -1.4542 289° West 404 465 15,300 1,355 Climbing FlightAware ADS-B
Mon 07:33:16 AM 51.5221 -1.4570 289° West 404 465 15,300 2,000 Level FlightAware ADS-B (EGDM)
Mon 07:33:39 AM 51.5364 -1.5223 289° West 405 466 16,100 1,800 Climbing FlightAware ADS-B
Mon 07:33:46 AM 51.5403 -1.5423 288° West 407 468 16,200 1,448 Climbing FlightAware ADS-B
Mon 07:34:08 AM 51.5533 -1.6059 289° West 412 474 16,800 1,600 Climbing FlightAware ADS-B
Mon 07:34:16 AM 51.5585 -1.6292 289° West 414 476 17,000 1,600 Climbing FlightAware ADS-B
Mon 07:34:23 AM 51.5620 -1.6466 289° West 416 479 17,200 1,800 Climbing FlightAware ADS-B (EGLF / FAB)
Mon 07:34:26 AM 51.5649 -1.6583 290° West 416 479 17,300 2,000 Climbing FlightAware ADS-B
Mon 07:34:32 AM 51.5637 -1.6551 289° West 417 480 17,500 1,714 Climbing FlightAware ADS-B (EGLF / FAB)
Mon 07:34:47 AM 51.5777 -1.7200 288° West 419 482 17,900 1,696 Climbing FlightAware ADS-B
Mon 07:35:18 AM 51.5966 -1.8120 288° West 422 486 18,800 1,800 Climbing FlightAware ADS-B
Mon 07:35:27 AM 51.6022 -1.8387 289° West 422 486 19,100 1,750 Climbing FlightAware ADS-B
Mon 07:35:42 AM 51.6109 -1.8837 289° West 424 488 19,500 1,429 Climbing FlightAware ADS-B
Mon 07:35:48 AM 51.6150 -1.9016 288° West 425 489 19,600 1,500 Climbing FlightAware ADS-B
Mon 07:36:02 AM 51.6242 -1.9437 291° West 429 494 20,000 1,600 Climbing FlightAware ADS-B
Mon 07:36:03 AM 51.6246 -1.9466 291° West 425 489 20,000 1,200 Level FlightAware ADS-B (EGDJ / UPV)
Mon 07:36:07 AM 51.6281 -1.9583 294° West 430 495 20,100 1,500 Climbing FlightAware ADS-B
Mon 07:36:11 AM 51.6311 -1.9698 296° West 431 496 20,200 1,636 Climbing FlightAware ADS-B
Mon 07:36:18 AM 51.6379 -1.9897 297° West 429 494 20,400 1,600 Climbing FlightAware ADS-B (LERS / REU)
Mon 07:36:41 AM 51.6604 -2.0548 299° West 435 501 21,000 1,600 Climbing FlightAware ADS-B
Mon 07:36:48 AM 51.6667 -2.0746 299° West 435 501 21,200 1,565 Climbing FlightAware ADS-B (EGHS)
Mon 07:37:04 AM 51.6825 -2.1204 299° West 438 504 21,600 1,579 Climbing FlightAware ADS-B (EGDX / DGX)
Mon 07:37:07 AM 51.6835 -2.1233 298° West 439 505 21,700 1,333 Climbing FlightAware ADS-B (EGHS)
Mon 07:37:13 AM 51.6914 -2.1462 298° West 439 505 21,800 1,412 Climbing FlightAware ADS-B
Mon 07:37:41 AM 51.7101 -2.2043 298° West 442 509 22,500 1,600 Climbing FlightAware ADS-B
Mon 07:37:43 AM 51.7201 -2.2334 298° West 443 510 22,600 1,714 Climbing FlightAware ADS-B
Mon 07:37:48 AM 51.7249 -2.2481 296° West 440 506 22,700 -522 Climbing FlightAware ADS-B (EGHI / SOU)
Mon 07:38:06 AM 51.7410 -2.2983 296° West 442 509 22,400 1,385 Descending FlightAware ADS-B
Mon 07:38:14 AM 51.7487 -2.3247 297° West 447 514 23,300 3,545 Climbing FlightAware ADS-B
Mon 07:38:28 AM 51.7620 -2.3663 296° West 445 512 23,700 1,765 Climbing FlightAware ADS-B (LERS / REU)
Mon 07:38:31 AM 51.7648 -2.3755 297° West 449 517 23,800 1,000 Climbing FlightAware ADS-B
Mon 07:38:34 AM 51.7675 -2.3842 296° West 442 509 23,800 1,385 Level FlightAware ADS-B
Mon 07:38:44 AM 51.7775 -2.4142 297° West 451 519 24,100 1,636 Climbing FlightAware ADS-B
Mon 07:38:45 AM 51.7751 -2.4083 297° West 452 520 24,100  Level FlightAware ADS-B (EGLC / LCY)
Mon 07:38:48 AM 51.7808 -2.4263 296° West 442 509 24,100 1,500 Level FlightAware ADS-B
Mon 07:39:05 AM 51.7968 -2.4775 296° West 449 517 24,600 2,160 Climbing FlightAware ADS-B (EGHI / SOU)
Mon 07:39:13 AM 51.8043 -2.5017 296° West 450 518 25,000 3,231 Climbing FlightAware ADS-B (EGLC / LCY)
Mon 07:39:18 AM 51.8085 -2.5171 294° West 447 514 25,300 3,692 Climbing FlightAware ADS-B
Mon 07:39:26 AM 51.8111 -2.5292 291° West 441 507 25,800 3,273 Climbing FlightAware ADS-B (EGDX / DGX)
Mon 07:39:29 AM 51.8164 -2.5508 289° West 439 505 25,900 1,714 Climbing FlightAware ADS-B
Mon 07:39:40 AM 51.8229 -2.5851 285° West 437 503 26,200 2,000 Climbing FlightAware ADS-B
Mon 07:39:47 AM 51.8266 -2.6074 283° West 436 502 26,500 2,143 Climbing FlightAware ADS-B (EGDJ / UPV)
Mon 07:39:54 AM 51.8298 -2.6297 283° West 438 504 26,700 1,800 Climbing FlightAware ADS-B
Mon 07:39:57 AM 51.8309 -2.6359 282° West 438 504 26,800 1,143 Climbing FlightAware ADS-B
Mon 07:40:15 AM 51.8392 -2.6969 283° West 441 507 27,100 -20,087 Climbing FlightAware ADS-B (EGLC / LCY)
Mon 07:40:20 AM 51.8409 -2.7099 282° West 444 511 19,100 1,000 Descending FlightAware ADS-B (EGDM)
Mon 07:40:27 AM 51.8445 -2.7360 282° West 446 513 27,300 31,125 Climbing FlightAware ADS-B
Mon 07:40:36 AM 51.8483 -2.7651 281° West 446 513 27,400 923 Climbing FlightAware ADS-B (EGHH / BOH)
Mon 07:40:40 AM 51.8502 -2.7784 281° West 447 514 27,500 1,091 Climbing FlightAware ADS-B
Mon 07:40:47 AM 51.8530 -2.8013 282° West 450 518 27,600 706 Climbing FlightAware ADS-B
Mon 07:40:57 AM 51.8574 -2.8344 283° West 454 522 27,700 1,059 Climbing FlightAware ADS-B
Mon 07:41:21 AM 51.8684 -2.9143 282° West 450 518 28,200 1,125 Climbing FlightAware ADS-B
Mon 07:41:29 AM 51.8716 -2.9411 283° West 461 531 28,300 1,421 Climbing FlightAware ADS-B
Mon 07:41:59 AM 51.8851 -3.0426 282° West 464 534 29,100 1,452 Climbing FlightAware ADS-B
Mon 07:42:31 AM 51.8996 -3.1520 282° West 468 539 29,800 871 Climbing FlightAware ADS-B (EGCW)
Mon 07:43:01 AM 51.9130 -3.2555 282° West 478 550 30,000 197 Climbing FlightAware ADS-B
Mon 07:43:32 AM 51.9272 -3.3621 282° West 491 565 30,000  Level FlightAware ADS-B (EGDM)
Mon 07:44:02 AM 51.9413 -3.4741 282° West 494 568 30,000  Level FlightAware ADS-B
Mon 07:44:33 AM 51.9556 -3.5863 281° West 495 570 30,000  Level FlightAware ADS-B
Mon 07:44:43 AM 51.9595 -3.6227 279° West 496 571 30,000  Level FlightAware ADS-B (EGCW)
Mon 07:44:46 AM 51.9607 -3.6339 278° West 495 570 30,000  Level FlightAware ADS-B
Mon 07:45:00 AM 51.9653 -3.6853 279° West 496 571 30,000  Level FlightAware ADS-B
Mon 07:45:32 AM 51.9758 -3.8033 278° West 498 573 30,000  Level FlightAware ADS-B
Mon 07:45:41 AM 51.9787 -3.8363 279° West 497 572 30,000  Level FlightAware ADS-B
Mon 07:45:44 AM 51.9794 -3.8436 278° West 497 572 30,000  Level FlightAware ADS-B
Mon 07:45:53 AM 51.9825 -3.8804 277° West 496 571 30,000  Level FlightAware ADS-B
Mon 07:45:59 AM 51.9847 -3.9027 279° West 497 572 30,000  Level FlightAware ADS-B
Mon 07:46:03 AM 51.9859 -3.9173 278° West 497 572 30,000  Level FlightAware ADS-B (EGCW)
Mon 07:46:24 AM 51.9931 -3.9946 277° West 496 571 30,000  Level FlightAware ADS-B (LERS / REU)
Mon 07:46:30 AM 51.9949 -4.0170 278° West 497 572 30,000  Level FlightAware ADS-B (EGCW)
Mon 07:46:40 AM 51.9982 -4.0538 277° West 496 571 30,000  Level FlightAware ADS-B
Mon 07:46:44 AM 51.9997 -4.0683 279° West 498 573 30,000  Level FlightAware ADS-B
Mon 07:46:51 AM 52.0018 -4.0906 277° West 497 572 30,000  Level FlightAware ADS-B
Mon 07:46:57 AM 52.0039 -4.1163 279° West 498 573 30,000  Level FlightAware ADS-B
Mon 07:47:03 AM 52.0060 -4.1386 277° West 497 572 30,000  Level FlightAware ADS-B (EGDX / DGX)
Mon 07:47:14 AM 52.0096 -4.1791 279° West 499 574 30,000  Level FlightAware ADS-B
Mon 07:47:19 AM 52.0110 -4.1940 277° West 498 573 30,000  Level FlightAware ADS-B (EGHH / BOH)
Mon 07:47:49 AM 52.0210 -4.3087 278° West 498 573 30,000  Level FlightAware ADS-B (EGCW)
Mon 07:48:22 AM 52.0315 -4.4302 278° West 495 570 30,000  Level FlightAware ADS-B
Mon 07:48:40 AM 52.0373 -4.4963 279° West 494 568 30,000  Level FlightAware ADS-B
Mon 07:49:15 AM 52.0487 -4.6246 278° West 494 568 30,000  Level FlightAware ADS-B (EGCW)
Mon 07:49:21 AM 52.0508 -4.6465 279° West 492 566 30,000  Level FlightAware ADS-B
Mon 07:49:52 AM 52.0607 -4.7597 278° West 492 566 30,000  Level FlightAware ADS-B
Mon 07:50:22 AM 52.0694 -4.8621 278° West 491 565 30,000  Level FlightAware ADS-B
Mon 07:50:53 AM 52.0781 -4.9564 281° West 488 562 30,000  Level FlightAware ADS-B (EGCW)
Mon 07:51:24 AM 52.0966 -5.0919 283° West 487 560 30,000  Level FlightAware ADS-B (EGYM / MRH)
Mon 07:51:46 AM 52.1071 -5.1631 283° West 487 560 30,000  Level FlightAware ADS-B (EGCW)
Mon 07:52:00 AM 52.1150 -5.2200 284° West 487 560 30,000  Level FlightAware ADS-B
Mon 07:52:05 AM 52.1177 -5.2381 283° West 488 562 30,000  Level FlightAware ADS-B (EGCW)
Mon 07:52:19 AM 52.1260 -5.2873 288° West 485 558 30,000  Level FlightAware ADS-B
Mon 07:52:29 AM 52.1286 -5.2975 291° West 484 557 30,000  Level FlightAware ADS-B (EGCW)
Mon 07:52:50 AM 52.1550 -5.3850 301° West 479 551 30,000  Level FlightAware ADS-B
Mon 07:52:53 AM 52.1602 -5.3970 301° West 479 551 30,000  Level FlightAware ADS-B
Mon 07:53:23 AM 52.2013 -5.4808 310° West 475 547 30,000  Level FlightAware ADS-B
Mon 07:53:53 AM 52.2426 -5.5631 309° West 475 547 30,000  Level FlightAware ADS-B
Mon 07:54:04 AM 52.2584 -5.5937 310° West 475 547 30,000  Level FlightAware ADS-B
Mon 07:54:35 AM 52.3022 -5.6782 311° West 474 545 30,000  Level FlightAware ADS-B
Mon 07:55:05 AM 52.3445 -5.7556 312° West 472 543 30,000  Level FlightAware ADS-B
Mon 07:55:35 AM 52.3890 -5.8383 312° West 471 542 30,000  Level FlightAware ADS-B
Mon 07:56:08 AM 52.4354 -5.9239 311° West 471 542 30,000  Level FlightAware ADS-B
Mon 07:56:42 AM 52.4860 -6.0178 311° West 469 540 30,000  Level FlightAware ADS-B
Mon 07:57:23 AM 52.5435 -6.1280 311° West 469 540 30,000  Level FlightAware ADS-B
Mon 07:57:53 AM 52.5863 -6.2086 311° West 468 539 30,000  Level FlightAware ADS-B
Mon 07:58:24 AM 52.6308 -6.2920 311° West 469 540 30,000  Level FlightAware ADS-B
Mon 07:58:55 AM 52.6726 -6.3727 311° West 469 540 30,000  Level FlightAware ADS-B
Mon 07:59:25 AM 52.7161 -6.4537 311° West 469 540 30,000  Level FlightAware ADS-B (EIDW / DUB)
Mon 07:59:57 AM 52.7613 -6.5402 311° West 467 537 30,000  Level FlightAware ADS-B
Mon 08:00:28 AM 52.8059 -6.6267 311° West 466 536 30,000  Level FlightAware ADS-B
Mon 08:01:06 AM 52.8588 -6.7294 311° West 466 536 30,000  Level FlightAware ADS-B (EIDW / DUB)
Mon 08:01:39 AM 52.9043 -6.8156 311° West 465 535 30,000  Level FlightAware ADS-B
Mon 08:01:46 AM 52.9129 -6.8347 310° West 458 527 30,000  Level FlightAware ADS-B
Mon 08:02:16 AM 52.9534 -6.9131 310° West 465 535 30,000  Level FlightAware ADS-B
Mon 08:02:54 AM 53.0047 -7.0134 310° West 466 536 30,000  Level FlightAware ADS-B (EIDW / DUB)
Mon 08:03:28 AM 53.0565 -7.1143 310° West 466 536 30,000  Level FlightAware ADS-B
Mon 08:03:58 AM 53.0918 -7.1826 310° West 467 537 30,000  Level FlightAware ADS-B
Mon 08:04:28 AM 53.1373 -7.2733 310° West 468 539 30,000  Level FlightAware ADS-B (KABQ)
Mon 08:05:01 AM 53.1864 -7.3695 309° West 462 532 30,000  Level FlightAware ADS-B
Mon 08:05:37 AM 53.2366 -7.4687 310° West 467 537 30,000  Level FlightAware ADS-B (KABQ)
Mon 08:06:07 AM 53.2774 -7.5516 310° West 467 537 30,000  Level FlightAware ADS-B (KABQ)
Mon 08:06:37 AM 53.3187 -7.6344 310° West 467 537 30,000  Level FlightAware ADS-B (KABQ)
Mon 08:07:07 AM 53.3607 -7.7177 310° West 467 537 30,000  Level FlightAware ADS-B (KABQ)
Mon 08:07:38 AM 53.4032 -7.8035 310° West 467 537 30,000  Level FlightAware ADS-B (KABQ)
Mon 08:07:47 AM 53.4163 -7.8286 309° West 462 532 30,000  Level FlightAware ADS-B
Mon 08:08:00 AM 53.4330 -7.8618 309° West 461 531 30,000  Level FlightAware ADS-B
Mon 08:08:18 AM 53.4583 -7.9148 309° West 461 531 30,000  Level FlightAware ADS-B
Mon 08:08:41 AM 53.4902 -7.9789 310° West 467 537 30,000  Level FlightAware ADS-B
Mon 08:09:04 AM 53.5201 -8.0401 309° West 460 529 30,000  Level FlightAware ADS-B
Mon 08:09:12 AM 53.5315 -8.0623 309° West 460 529 30,000  Level FlightAware ADS-B
Mon 08:09:43 AM 53.5752 -8.1515 309° West 465 535 30,000  Level FlightAware ADS-B
Mon 08:10:14 AM 53.6168 -8.2380 309° West 465 535 30,000  Level FlightAware ADS-B
Mon 08:10:44 AM 53.6579 -8.3221 309° West 465 535 30,000  Level FlightAware ADS-B (KHWO)
Mon 08:11:15 AM 53.6997 -8.4088 309° West 465 535 30,000  Level FlightAware ADS-B
Mon 08:11:45 AM 53.7409 -8.4930 309° West 464 534 30,000  Level FlightAware ADS-B (KABQ)
Mon 08:12:18 AM 53.7863 -8.5884 309° West 463 533 30,000  Level FlightAware ADS-B
Mon 08:12:53 AM 53.8324 -8.6840 309° West 463 533 30,000  Level FlightAware ADS-B
Mon 08:13:24 AM 53.8739 -8.7710 309° West 463 533 30,000  Level FlightAware ADS-B (KHWO)
Mon 08:14:01 AM 53.9037 -8.8330 309° West 462 532 30,000  Level FlightAware ADS-B
Mon 08:14:32 AM 53.9649 -8.9602 309° West 463 533 30,000  Level FlightAware ADS-B (KABQ)
Mon 08:15:39 AM 54.0560 -9.1536 309° West 465 535 30,000  Level FlightAware ADS-B (KHWO)
Mon 08:18:45 AM 54.3031 -9.6875 308° West 467 537 30,000  Level FlightAware ADS-B (KHWO)
Mon 08:19:17 AM 54.3461 -9.7805 308° West 467 537 30,000 17 Level FlightAware ADS-B (KHWO)
Mon 08:21:00 AM 54.4826 -10.0660 310° West  Level Estimated
Mon 08:22:00 AM 54.5617 -10.2332 309° West  Level Estimated
Mon 08:23:00 AM 54.6407 -10.4010 309° West  Level Estimated
Mon 08:24:00 AM 54.7194 -10.5695 309° West  Level Estimated
Mon 08:25:00 AM 54.7979 -10.7387 309° West  Level Estimated
Mon 08:26:00 AM 54.8761 -10.9085 309° West  Level Estimated
Mon 08:27:00 AM 54.9541 -11.0790 309° West  Level Estimated
Mon 08:28:00 AM 55.0319 -11.2501 308° West  Level Estimated
Mon 08:29:00 AM 55.1094 -11.4219 308° West  Level Estimated
Mon 08:30:00 AM 55.1867 -11.5943 308° West  Level Estimated
Mon 08:31:00 AM 55.2637 -11.7675 308° West  Level Estimated
Mon 08:32:00 AM 55.3405 -11.9413 308° West  Level Estimated
Mon 08:33:00 AM 55.4170 -12.1157 308° West  Level Estimated
Mon 08:34:00 AM 55.4933 -12.2909 308° West  Level Estimated
Mon 08:35:00 AM 55.5694 -12.4667 307° West  Level Estimated
Mon 08:36:00 AM 55.6451 -12.6432 307° West  Level Estimated
Mon 08:37:00 AM 55.7207 -12.8204 307° West  Level Estimated
Mon 08:38:00 AM 55.7960 -12.9983 307° West  Level Estimated
Mon 08:39:00 AM 55.8710 -13.1769 307° West  Level Estimated
Mon 08:40:00 AM 55.9457 -13.3561 307° West  Level Estimated
Mon 08:41:00 AM 56.0202 -13.5361 307° West  Level Estimated
Mon 08:42:00 AM 56.0945 -13.7167 306° West  Level Estimated
Mon 08:43:00 AM 56.1684 -13.8981 306° West  Level Estimated
Mon 08:44:00 AM 56.2421 -14.0801 306° West  Level Estimated
Mon 08:45:00 AM 56.3156 -14.2628 306° West  Level Estimated
Mon 08:46:00 AM 56.3887 -14.4463 306° West  Level Estimated
Mon 08:47:00 AM 56.4617 -14.6304 306° West  Level Estimated
Mon 08:48:00 AM 56.5343 -14.8153 306° West  Level Estimated
Mon 08:49:00 AM 56.6066 -15.0008 305° West  Level Estimated
Mon 08:50:00 AM 56.6787 -15.1871 305° West  Level Estimated
Mon 08:51:00 AM 56.7505 -15.3741 305° West  Level Estimated
Mon 08:52:00 AM 56.8220 -15.5618 305° West  Level Estimated
Mon 08:53:00 AM 56.8932 -15.7502 305° West  Level Estimated
Mon 08:54:00 AM 56.9641 -15.9394 305° West  Level Estimated
Mon 08:55:00 AM 57.0348 -16.1292 304° West  Level Estimated
Mon 08:56:00 AM 57.1052 -16.3198 304° West  Level Estimated
Mon 08:57:00 AM 57.1753 -16.5111 304° West  Level Estimated
Mon 08:58:00 AM 57.2450 -16.7031 304° West  Level Estimated
Mon 08:59:00 AM 57.3145 -16.8959 304° West  Level Estimated
Mon 09:00:00 AM 57.3837 -17.0894 304° West  Level Estimated
Mon 09:01:00 AM 57.4526 -17.2836 303° West  Level Estimated
Mon 09:02:00 AM 57.5212 -17.4785 303° West  Level Estimated
Mon 09:03:00 AM 57.5895 -17.6742 303° West  Level Estimated
Mon 09:04:00 AM 57.6575 -17.8706 303° West  Level Estimated
Mon 09:05:00 AM 57.7252 -18.0678 303° West  Level Estimated
Mon 09:06:00 AM 57.7926 -18.2656 303° West  Level Estimated
Mon 09:07:00 AM 57.8596 -18.4643 302° West  Level Estimated
Mon 09:08:00 AM 57.9264 -18.6636 302° West  Level Estimated
Mon 09:09:00 AM 57.9928 -18.8637 302° West  Level Estimated
Mon 09:10:00 AM 58.0590 -19.0646 302° West  Level Estimated
Mon 09:11:00 AM 58.1248 -19.2662 302° West  Level Estimated
Mon 09:12:00 AM 58.1903 -19.4685 302° West  Level Estimated
Mon 09:13:00 AM 58.2555 -19.6716 301° West  Level Estimated
Mon 09:14:00 AM 58.3203 -19.8754 301° West  Level Estimated
Mon 09:15:00 AM 58.3848 -20.0800 301° West  Level Estimated
Mon 09:16:00 AM 58.4490 -20.2853 301° West  Level Estimated
Mon 09:17:00 AM 58.5129 -20.4914 301° West  Level Estimated
Mon 09:18:00 AM 58.5764 -20.6982 301° West  Level Estimated
Mon 09:19:00 AM 58.6396 -20.9058 300° West  Level Estimated
Mon 09:20:00 AM 58.7025 -21.1141 300° West  Level Estimated
Mon 09:21:00 AM 58.7650 -21.3232 300° West  Level Estimated
Mon 09:22:00 AM 58.8272 -21.5330 300° West  Level Estimated
Mon 09:23:00 AM 58.8891 -21.7436 300° West  Level Estimated
Mon 09:24:00 AM 58.9506 -21.9549 300° West  Level Estimated
Mon 09:25:00 AM 59.0117 -22.1670 299° West  Level Estimated
Mon 09:26:00 AM 59.0725 -22.3798 299° West  Level Estimated
Mon 09:27:00 AM 59.1330 -22.5934 299° West  Level Estimated
Mon 09:28:00 AM 59.1931 -22.8077 299° West  Level Estimated
Mon 09:29:00 AM 59.2529 -23.0228 299° West  Level Estimated
Mon 09:30:00 AM 59.3123 -23.2387 298° West  Level Estimated
Mon 09:31:00 AM 59.3713 -23.4553 298° West  Level Estimated
Mon 09:32:00 AM 59.4300 -23.6726 298° West  Level Estimated
Mon 09:33:00 AM 59.4883 -23.8907 298° West  Level Estimated
Mon 09:34:00 AM 59.5463 -24.1096 298° West  Level Estimated
Mon 09:35:00 AM 59.6039 -24.3292 297° West  Level Estimated
Mon 09:36:00 AM 59.6611 -24.5496 297° West  Level Estimated
Mon 09:37:00 AM 59.7179 -24.7707 297° West  Level Estimated
Mon 09:38:00 AM 59.7744 -24.9925 297° West  Level Estimated
Mon 09:39:00 AM 59.8305 -25.2152 297° West  Level Estimated
Mon 09:40:00 AM 59.8862 -25.4385 297° West  Level Estimated
Mon 09:41:00 AM 59.9416 -25.6626 296° West  Level Estimated
Mon 09:42:00 AM 59.9965 -25.8875 296° West  Level Estimated
Mon 09:43:00 AM 60.0511 -26.1131 296° West  Level Estimated
Mon 09:44:00 AM 60.1053 -26.3394 296° West  Level Estimated
Mon 09:45:00 AM 60.1591 -26.5665 296° West  Level Estimated
Mon 09:46:00 AM 60.2125 -26.7943 295° West  Level Estimated
Mon 09:47:00 AM 60.2656 -27.0229 295° West  Level Estimated
Mon 09:48:00 AM 60.3182 -27.2522 295° West  Level Estimated
Mon 09:49:00 AM 60.3704 -27.4823 295° West  Level Estimated
Mon 09:50:00 AM 60.4223 -27.7131 295° West  Level Estimated
Mon 09:51:00 AM 60.4737 -27.9446 294° West  Level Estimated
Mon 09:52:00 AM 60.5247 -28.1768 294° West  Level Estimated
Mon 09:53:00 AM 60.5754 -28.4098 294° West  Level Estimated
Mon 09:54:00 AM 60.6256 -28.6435 294° West  Level Estimated
Mon 09:55:00 AM 60.6754 -28.8780 294° West  Level Estimated
Mon 09:56:00 AM 60.7248 -29.1131 293° West  Level Estimated
Mon 09:57:00 AM 60.7738 -29.3490 293° West  Level Estimated
Mon 09:58:00 AM 60.8224 -29.5856 293° West  Level Estimated
Mon 09:59:00 AM 60.8705 -29.8229 293° West  Level Estimated
Mon 10:00:00 AM 60.9183 -30.0609 293° West  Level Estimated
Mon 10:01:00 AM 60.9656 -30.2997 292° West  Level Estimated
Mon 10:02:00 AM 61.0125 -30.5391 292° West  Level Estimated
Mon 10:03:00 AM 61.0589 -30.7793 292° West  Level Estimated
Mon 10:04:00 AM 61.1050 -31.0201 292° West  Level Estimated
Mon 10:05:00 AM 61.1506 -31.2617 291° West  Level Estimated
Mon 10:06:00 AM 61.1958 -31.5040 291° West  Level Estimated
Mon 10:07:00 AM 61.2405 -31.7469 291° West  Level Estimated
Mon 10:08:00 AM 61.2849 -31.9905 291° West  Level Estimated
Mon 10:09:00 AM 61.3287 -32.2349 291° West  Level Estimated
Mon 10:10:00 AM 61.3722 -32.4799 290° West  Level Estimated
Mon 10:11:00 AM 61.4151 -32.7255 290° West  Level Estimated
Mon 10:12:00 AM 61.4577 -32.9719 290° West  Level Estimated
Mon 10:13:00 AM 61.4998 -33.2189 290° West  Level Estimated
Mon 10:14:00 AM 61.5415 -33.4666 290° West  Level Estimated
Mon 10:15:00 AM 61.5826 -33.7150 289° West  Level Estimated
Mon 10:16:00 AM 61.6234 -33.9640 289° West  Level Estimated
Mon 10:17:00 AM 61.6637 -34.2136 289° West  Level Estimated
Mon 10:18:00 AM 61.7035 -34.4639 289° West  Level Estimated
Mon 10:19:00 AM 61.7429 -34.7149 288° West  Level Estimated
Mon 10:20:00 AM 61.7819 -34.9665 288° West  Level Estimated
Mon 10:21:00 AM 61.8203 -35.2187 288° West  Level Estimated
Mon 10:22:00 AM 61.8583 -35.4715 288° West  Level Estimated
Mon 10:23:00 AM 61.8959 -35.7250 288° West  Level Estimated
Mon 10:24:00 AM 61.9329 -35.9791 287° West  Level Estimated
Mon 10:25:00 AM 61.9695 -36.2338 287° West  Level Estimated
Mon 10:26:00 AM 62.0057 -36.4892 287° West  Level Estimated
Mon 10:27:00 AM 62.0413 -36.7451 287° West  Level Estimated
Mon 10:28:00 AM 62.0765 -37.0016 286° West  Level Estimated
Mon 10:29:00 AM 62.1112 -37.2587 286° West  Level Estimated
Mon 10:30:00 AM 62.1454 -37.5164 286° West  Level Estimated
Mon 10:31:00 AM 62.1792 -37.7747 286° West  Level Estimated
Mon 10:32:00 AM 62.2124 -38.0335 286° West  Level Estimated
Mon 10:33:00 AM 62.2452 -38.2929 285° West  Level Estimated
Mon 10:34:00 AM 62.2775 -38.5529 285° West  Level Estimated
Mon 10:35:00 AM 62.3093 -38.8134 285° West  Level Estimated
Mon 10:36:00 AM 62.3407 -39.0745 285° West  Level Estimated
Mon 10:37:00 AM 62.3715 -39.3361 284° West  Level Estimated
Mon 10:38:00 AM 62.4018 -39.5983 284° West  Level Estimated
Mon 10:39:00 AM 62.4317 -39.8610 284° West  Level Estimated
Mon 10:40:00 AM 62.4610 -40.1242 284° West  Level Estimated
Mon 10:41:00 AM 62.4899 -40.3879 283° West  Level Estimated
Mon 10:42:00 AM 62.5182 -40.6521 283° West  Level Estimated
Mon 10:43:00 AM 62.5461 -40.9168 283° West  Level Estimated
Mon 10:44:00 AM 62.5735 -41.1820 283° West  Level Estimated
Mon 10:45:00 AM 62.6003 -41.4477 282° West  Level Estimated
Mon 10:46:00 AM 62.6267 -41.7139 282° West  Level Estimated
Mon 10:47:00 AM 62.6525 -41.9805 282° West  Level Estimated
Mon 10:48:00 AM 62.6778 -42.2476 282° West  Level Estimated
Mon 10:49:00 AM 62.7027 -42.5152 282° West  Level Estimated
Mon 10:50:00 AM 62.7270 -42.7832 281° West  Level Estimated
Mon 10:51:00 AM 62.7508 -43.0516 281° West  Level Estimated
Mon 10:52:00 AM 62.7741 -43.3205 281° West  Level Estimated
Mon 10:53:00 AM 62.7969 -43.5897 281° West  Level Estimated
Mon 10:54:00 AM 62.8191 -43.8595 280° West  Level Estimated
Mon 10:55:00 AM 62.8409 -44.1296 280° West  Level Estimated
Mon 10:56:00 AM 62.8621 -44.4000 280° West  Level Estimated
Mon 10:57:00 AM 62.8828 -44.6709 280° West  Level Estimated
Mon 10:58:00 AM 62.9030 -44.9422 279° West  Level Estimated
Mon 10:59:00 AM 62.9227 -45.2138 279° West  Level Estimated
Mon 11:00:00 AM 62.9418 -45.4858 279° West  Level Estimated
Mon 11:01:00 AM 62.9604 -45.7581 279° West  Level Estimated
Mon 11:02:00 AM 62.9785 -46.0308 278° West  Level Estimated
Mon 11:03:00 AM 62.9961 -46.3038 278° West  Level Estimated
Mon 11:04:00 AM 63.0132 -46.5772 278° West  Level Estimated
Mon 11:05:00 AM 63.0297 -46.8508 278° West  Level Estimated
Mon 11:06:00 AM 63.0457 -47.1248 277° West  Level Estimated
Mon 11:07:00 AM 63.0611 -47.3990 277° West  Level Estimated
Mon 11:08:00 AM 63.0760 -47.6736 277° West  Level Estimated
Mon 11:09:00 AM 63.0905 -47.9484 277° West  Level Estimated
Mon 11:10:00 AM 63.1043 -48.2235 276° West  Level Estimated
Mon 11:11:00 AM 63.1176 -48.4988 276° West  Level Estimated
Mon 11:12:00 AM 63.1304 -48.7744 276° West  Level Estimated
Mon 11:13:00 AM 63.1427 -49.0502 276° West  Level Estimated
Mon 11:14:00 AM 63.1544 -49.3263 275° West  Level Estimated
Mon 11:15:00 AM 63.1656 -49.6026 275° West  Level Estimated
Mon 11:16:00 AM 63.1763 -49.8791 275° West  Level Estimated
Mon 11:17:00 AM 63.1864 -50.1557 275° West  Level Estimated
Mon 11:18:00 AM 63.1959 -50.4326 275° West  Level Estimated
Mon 11:19:00 AM 63.2050 -50.7096 274° West  Level Estimated
Mon 11:20:00 AM 63.2135 -50.9869 274° West  Level Estimated
Mon 11:21:00 AM 63.2215 -51.2642 274° West  Level Estimated
Mon 11:22:00 AM 63.2289 -51.5418 274° West  Level Estimated
Mon 11:23:00 AM 63.2357 -51.8194 273° West  Level Estimated
Mon 11:24:00 AM 63.2421 -52.0972 273° West  Level Estimated
Mon 11:25:00 AM 63.2479 -52.3751 273° West  Level Estimated
Mon 11:26:00 AM 63.2531 -52.6531 273° West  Level Estimated
Mon 11:27:00 AM 63.2578 -52.9312 272° West  Level Estimated
Mon 11:28:00 AM 63.2620 -53.2094 272° West  Level Estimated
Mon 11:29:00 AM 63.2656 -53.4877 272° West  Level Estimated
Mon 11:30:00 AM 63.2687 -53.7660 272° West  Level Estimated
Mon 11:31:00 AM 63.2712 -54.0444 271° West  Level Estimated
Mon 11:32:00 AM 63.2732 -54.3228 271° West  Level Estimated
Mon 11:33:00 AM 63.2747 -54.6012 271° West  Level Estimated
Mon 11:34:00 AM 63.2756 -54.8797 271° West  Level Estimated
Mon 11:35:00 AM 63.2760 -55.1582 270° West  Level Estimated
Mon 11:36:00 AM 63.2758 -55.4367 270° West  Level Estimated
Mon 11:37:00 AM 63.2751 -55.7152 270° West  Level Estimated
Mon 11:38:00 AM 63.2738 -55.9937 270° West  Level Estimated
Mon 11:39:00 AM 63.2720 -56.2721 269° West  Level Estimated
Mon 11:40:00 AM 63.2696 -56.5505 269° West  Level Estimated
Mon 11:41:00 AM 63.2667 -56.8289 269° West  Level Estimated
Mon 11:42:00 AM 63.2633 -57.1072 269° West  Level Estimated
Mon 11:43:00 AM 63.2593 -57.3854 268° West  Level Estimated
Mon 11:44:00 AM 63.2548 -57.6635 268° West  Level Estimated
Mon 11:45:00 AM 63.2497 -57.9415 268° West  Level Estimated
Mon 11:46:00 AM 63.2441 -58.2195 268° West  Level Estimated
Mon 11:47:00 AM 63.2379 -58.4973 267° West  Level Estimated
Mon 11:48:00 AM 63.2312 -58.7750 267° West  Level Estimated
Mon 11:49:00 AM 63.2240 -59.0526 267° West  Level Estimated
Mon 11:50:00 AM 63.2162 -59.3300 267° West  Level Estimated
Mon 11:51:00 AM 63.2079 -59.6073 266° West  Level Estimated
Mon 11:52:00 AM 63.1991 -59.8844 266° West  Level Estimated
Mon 11:53:00 AM 63.1897 -60.1613 266° West  Level Estimated
Mon 11:54:00 AM 63.1797 -60.4380 266° West  Level Estimated
Mon 11:55:00 AM 63.1693 -60.7146 265° West  Level Estimated
Mon 11:56:00 AM 63.1582 -60.9909 265° West  Level Estimated
Mon 11:57:00 AM 63.1467 -61.2671 265° West  Level Estimated
Mon 11:58:00 AM 63.1346 -61.5430 265° West  Level Estimated
Mon 11:59:00 AM 63.1214 -61.8310 264° West  Level Estimated
Mon 12:00:00 PM 63.1076 -62.1187 264° West  Level Estimated
Mon 12:01:00 PM 63.0933 -62.4062 264° West  Level Estimated
Mon 12:02:00 PM 63.0783 -62.6934 264° West  Level Estimated
Mon 12:03:00 PM 63.0632 -62.9733 263° West  Level Estimated
Mon 12:04:00 PM 63.0475 -63.2530 263° West  Level Estimated
Mon 12:05:00 PM 63.0313 -63.5323 263° West  Level Estimated
Mon 12:06:00 PM 63.0145 -63.8113 263° West  Level Estimated
Mon 12:07:00 PM 62.9971 -64.0900 262° West  Level Estimated
Mon 12:08:00 PM 62.9793 -64.3684 262° West  Level Estimated
Mon 12:09:00 PM 62.9608 -64.6464 262° West  Level Estimated
Mon 12:10:00 PM 62.9418 -64.9241 262° West  Level Estimated
Mon 12:11:00 PM 62.9223 -65.2014 261° West  Level Estimated
Mon 12:12:00 PM 62.9022 -65.4783 261° West  Level Estimated
Mon 12:13:00 PM 62.8816 -65.7549 261° West  Level Estimated
Mon 12:14:00 PM 62.8605 -66.0311 261° West  Level Estimated
Mon 12:15:00 PM 62.8388 -66.3068 260° West  Level Estimated
Mon 12:16:00 PM 62.8166 -66.5821 260° West  Level Estimated
Mon 12:17:00 PM 62.7938 -66.8570 260° West  Level Estimated
Mon 12:18:00 PM 62.7705 -67.1315 260° West  Level Estimated
Mon 12:19:00 PM 62.7467 -67.4056 259° West  Level Estimated
Mon 12:20:00 PM 62.7223 -67.6792 259° West  Level Estimated
Mon 12:21:00 PM 62.6974 -67.9523 259° West  Level Estimated
Mon 12:22:00 PM 62.6720 -68.2250 259° West  Level Estimated
Mon 12:23:00 PM 62.6460 -68.4972 258° West  Level Estimated
Mon 12:24:00 PM 62.6195 -68.7690 258° West  Level Estimated
Mon 12:25:00 PM 62.5925 -69.0402 258° West  Level Estimated
Mon 12:26:00 PM 62.5650 -69.3109 258° West  Level Estimated
Mon 12:27:00 PM 62.5369 -69.5812 257° West  Level Estimated
Mon 12:28:00 PM 62.5083 -69.8509 257° West  Level Estimated
Mon 12:29:00 PM 62.4792 -70.1201 257° West  Level Estimated
Mon 12:30:00 PM 62.4496 -70.3888 257° West  Level Estimated
Mon 12:31:00 PM 62.4195 -70.6569 256° West  Level Estimated
Mon 12:32:00 PM 62.3889 -70.9245 256° West  Level Estimated
Mon 12:33:00 PM 62.3577 -71.1915 256° West  Level Estimated
Mon 12:34:00 PM 62.3260 -71.4580 256° West  Level Estimated
Mon 12:35:00 PM 62.2939 -71.7239 256° West  Level Estimated
Mon 12:36:00 PM 62.2612 -71.9893 255° West  Level Estimated
Mon 12:37:00 PM 62.2280 -72.2540 255° West  Level Estimated
Mon 12:38:00 PM 62.1943 -72.5182 255° West  Level Estimated
Mon 12:39:00 PM 62.1601 -72.7818 255° West  Level Estimated
Mon 12:40:00 PM 62.1254 -73.0448 254° West  Level Estimated
Mon 12:41:00 PM 62.0902 -73.3072 254° West  Level Estimated
Mon 12:42:00 PM 62.0546 -73.5689 254° West  Level Estimated
Mon 12:43:00 PM 62.0184 -73.8301 254° West  Level Estimated
Mon 12:44:00 PM 61.9817 -74.0906 253° West  Level Estimated
Mon 12:45:00 PM 61.9445 -74.3505 253° West  Level Estimated
Mon 12:46:00 PM 61.9069 -74.6098 253° West  Level Estimated
Mon 12:47:00 PM 61.8688 -74.8684 253° West  Level Estimated
Mon 12:48:00 PM 61.8301 -75.1264 253° West  Level Estimated
Mon 12:49:00 PM 61.7910 -75.3837 252° West  Level Estimated
Mon 12:50:00 PM 61.7515 -75.6403 252° West  Level Estimated
Mon 12:51:00 PM 61.7114 -75.8963 252° West  Level Estimated
Mon 12:52:00 PM 61.6709 -76.1517 252° West  Level Estimated
Mon 12:53:00 PM 61.6298 -76.4063 251° West  Level Estimated
Mon 12:54:00 PM 61.5884 -76.6603 251° West  Level Estimated
Mon 12:55:00 PM 61.5464 -76.9136 251° West  Level Estimated
Mon 12:56:00 PM 61.5040 -77.1662 251° West  Level Estimated
Mon 12:57:00 PM 61.4611 -77.4181 250° West  Level Estimated
Mon 12:58:00 PM 61.4178 -77.6693 250° West  Level Estimated
Mon 12:59:00 PM 61.3740 -77.9199 250° West  Level Estimated
Mon 01:00:00 PM 61.3297 -78.1697 250° West  Level Estimated
Mon 01:01:00 PM 61.2850 -78.4188 250° West  Level Estimated
Mon 01:02:00 PM 61.2398 -78.6672 249° West  Level Estimated
Mon 01:03:00 PM 61.1941 -78.9149 249° West  Level Estimated
Mon 01:04:00 PM 61.1481 -79.1618 249° West  Level Estimated
Mon 01:05:00 PM 61.1015 -79.4081 249° West  Level Estimated
Mon 01:06:00 PM 61.0546 -79.6536 249° West  Level Estimated
Mon 01:07:00 PM 61.0071 -79.8983 248° West  Level Estimated
Mon 01:08:00 PM 60.9593 -80.1424 248° West  Level Estimated
Mon 01:09:00 PM 60.9110 -80.3857 248° West  Level Estimated
Mon 01:10:00 PM 60.8622 -80.6283 248° West  Level Estimated
Mon 01:11:00 PM 60.8130 -80.8701 247° West  Level Estimated
Mon 01:12:00 PM 60.7634 -81.1112 247° West  Level Estimated
Mon 01:13:00 PM 60.7134 -81.3515 247° West  Level Estimated
Mon 01:14:00 PM 60.6629 -81.5911 247° West  Level Estimated
Mon 01:15:00 PM 60.6120 -81.8299 247° West  Level Estimated
Mon 01:16:00 PM 60.5607 -82.0680 246° West  Level Estimated
Mon 01:17:00 PM 60.5089 -82.3053 246° West  Level Estimated
Mon 01:18:00 PM 60.4568 -82.5418 246° West  Level Estimated
Mon 01:19:00 PM 60.4042 -82.7776 246° West  Level Estimated
Mon 01:20:00 PM 60.3512 -83.0127 246° West  Level Estimated
Mon 01:21:00 PM 60.2978 -83.2469 245° Southwest  Level Estimated
Mon 01:22:00 PM 60.2440 -83.4804 245° Southwest  Level Estimated
Mon 01:23:00 PM 60.1897 -83.7131 245° Southwest  Level Estimated
Mon 01:24:00 PM 60.1351 -83.9451 245° Southwest  Level Estimated
Mon 01:25:00 PM 60.0801 -84.1763 245° Southwest  Level Estimated
Mon 01:26:00 PM 60.0246 -84.4067 244° Southwest  Level Estimated
Mon 01:27:00 PM 59.9688 -84.6363 244° Southwest  Level Estimated
Mon 01:28:00 PM 59.9125 -84.8652 244° Southwest  Level Estimated
Mon 01:29:00 PM 59.8559 -85.0933 244° Southwest  Level Estimated
Mon 01:30:00 PM 59.7989 -85.3206 244° Southwest  Level Estimated
Mon 01:31:00 PM 59.7415 -85.5471 243° Southwest  Level Estimated
Mon 01:32:00 PM 59.6837 -85.7729 243° Southwest  Level Estimated
Mon 01:33:00 PM 59.6255 -85.9978 243° Southwest  Level Estimated
Mon 01:34:00 PM 59.5669 -86.2220 243° Southwest  Level Estimated
Mon 01:35:00 PM 59.5079 -86.4454 243° Southwest  Level Estimated
Mon 01:36:00 PM 59.4486 -86.6681 242° Southwest  Level Estimated
Mon 01:37:00 PM 59.3889 -86.8899 242° Southwest  Level Estimated
Mon 01:38:00 PM 59.3288 -87.1109 242° Southwest  Level Estimated
Mon 01:39:00 PM 59.2683 -87.3312 242° Southwest  Level Estimated
Mon 01:40:00 PM 59.2075 -87.5507 242° Southwest  Level Estimated
Mon 01:41:00 PM 59.1463 -87.7694 241° Southwest  Level Estimated
Mon 01:42:00 PM 59.0847 -87.9874 241° Southwest  Level Estimated
Mon 01:43:00 PM 59.0228 -88.2045 241° Southwest  Level Estimated
Mon 01:44:00 PM 58.9605 -88.4209 241° Southwest  Level Estimated
Mon 01:45:00 PM 58.8978 -88.6364 241° Southwest  Level Estimated
Mon 01:46:00 PM 58.8348 -88.8512 241° Southwest  Level Estimated
Mon 01:47:00 PM 58.7714 -89.0652 240° Southwest  Level Estimated
Mon 01:48:00 PM 58.7077 -89.2785 240° Southwest  Level Estimated
Mon 01:49:00 PM 58.6437 -89.4909 240° Southwest  Level Estimated
Mon 01:50:00 PM 58.5792 -89.7026 240° Southwest  Level Estimated
Mon 01:51:00 PM 58.5145 -89.9135 240° Southwest  Level Estimated
Mon 01:52:00 PM 58.4493 -90.1236 239° Southwest  Level Estimated
Mon 01:53:00 PM 58.3839 -90.3329 239° Southwest  Level Estimated
Mon 01:54:00 PM 58.3181 -90.5415 239° Southwest  Level Estimated
Mon 01:55:00 PM 58.2520 -90.7493 239° Southwest  Level Estimated
Mon 01:56:00 PM 58.1855 -90.9563 239° Southwest  Level Estimated
Mon 01:57:00 PM 58.1187 -91.1625 239° Southwest  Level Estimated
Mon 01:58:00 PM 58.0516 -91.3680 238° Southwest  Level Estimated
Mon 01:59:00 PM 57.9841 -91.5726 238° Southwest  Level Estimated
Mon 02:00:00 PM 57.9163 -91.7766 238° Southwest  Level Estimated
Mon 02:01:00 PM 57.8482 -91.9797 238° Southwest  Level Estimated
Mon 02:02:00 PM 57.7798 -92.1821 238° Southwest  Level Estimated
Mon 02:03:00 PM 57.7110 -92.3837 238° Southwest  Level Estimated
Mon 02:04:00 PM 57.6419 -92.5845 237° Southwest  Level Estimated
Mon 02:05:00 PM 57.5725 -92.7846 237° Southwest  Level Estimated
Mon 02:05:36 PM 62.4833 -104.4333 236° Southwest 490 564 36,000  Level Edmonton Center
Mon 02:06:00 PM 57.5028 -92.9839 237° Southwest  Level Estimated
Mon 02:06:36 PM 62.3667 -104.5833 211° Southwest 490 564 36,000  Level Edmonton Center
Mon 02:07:00 PM 57.4328 -93.1824 237° Southwest  Level Estimated
Mon 02:07:36 PM 62.2667 -104.7667 221° Southwest 490 564 36,000  Level Edmonton Center
Mon 02:08:00 PM 57.3624 -93.3802 237° Southwest  Level Estimated
Mon 02:08:36 PM 62.1500 -104.9500 216° Southwest 490 564 36,000  Level Edmonton Center
Mon 02:09:00 PM 57.2918 -93.5773 236° Southwest  Level Estimated
Mon 02:09:36 PM 62.0500 -105.1000 215° Southwest 480 552 36,000  Level Edmonton Center
Mon 02:10:00 PM 57.2209 -93.7736 236° Southwest  Level Estimated
Mon 02:10:36 PM 61.9333 -105.2833 217° Southwest 480 552 36,000  Level Edmonton Center
Mon 02:11:00 PM 57.1496 -93.9691 236° Southwest  Level Estimated
Mon 02:11:36 PM 61.8167 -105.4667 217° Southwest 480 552 36,000  Level Edmonton Center
Mon 02:12:36 PM 61.7000 -105.6000 208° Southwest 480 552 36,000  Level Edmonton Center
Mon 02:13:36 PM 61.6000 -105.7833 221° Southwest 480 552 36,000  Level Edmonton Center
Mon 02:14:36 PM 61.4833 -105.9167 209° Southwest 480 552 36,000  Level Edmonton Center
Mon 02:15:36 PM 61.3833 -106.0833 219° Southwest 480 552 36,000  Level Edmonton Center
Mon 02:16:36 PM 61.2667 -106.2667 217° Southwest 480 552 36,000  Level Edmonton Center
Mon 02:17:36 PM 61.1333 -106.4333 211° Southwest 480 552 36,000  Level Edmonton Center
Mon 02:18:36 PM 61.0333 -106.5667 213° Southwest 480 552 36,000  Level Edmonton Center
Mon 02:19:36 PM 60.9167 -106.7333 215° Southwest 480 552 36,000  Level Edmonton Center
Mon 02:20:36 PM 60.8167 -106.8667 213° Southwest 480 552 36,000  Level Edmonton Center
Mon 02:21:36 PM 60.6833 -107.0333 211° Southwest 480 552 36,000  Level Edmonton Center
Mon 02:22:36 PM 60.5833 -107.1667 213° Southwest 480 552 36,000  Level Edmonton Center
Mon 02:23:36 PM 60.4667 -107.3333 215° Southwest 480 552 36,000  Level Edmonton Center
Mon 02:24:36 PM 60.3667 -107.5000 220° Southwest 480 552 36,000  Level Edmonton Center
Mon 02:25:36 PM 60.2333 -107.6167 203° Southwest 480 552 36,000  Level Edmonton Center
Mon 02:26:36 PM 60.1333 -107.7833 220° Southwest 480 552 36,000  Level Edmonton Center
Mon 02:27:36 PM 60.0167 -107.9167 210° Southwest 480 552 36,000  Level Edmonton Center
Mon 02:28:36 PM 59.9000 -108.0667 213° Southwest 480 552 36,000  Level Edmonton Center
Mon 02:29:36 PM 59.7833 -108.2333 216° Southwest 480 552 36,000  Level Edmonton Center
Mon 02:30:36 PM 59.6667 -108.3833 213° Southwest 480 552 36,000  Level Edmonton Center
Mon 02:31:36 PM 59.5500 -108.5167 210° Southwest 480 552 36,000  Level Edmonton Center
Mon 02:32:36 PM 59.4500 -108.6667 217° Southwest 470 541 36,000  Level Edmonton Center
Mon 02:33:36 PM 59.3333 -108.8500 219° Southwest 470 541 36,000  Level Edmonton Center
Mon 02:34:36 PM 59.2333 -109.0000 218° Southwest 470 541 36,000  Level Edmonton Center
Mon 02:35:36 PM 59.1500 -109.1667 226° Southwest 470 541 36,000  Level Edmonton Center
Mon 02:36:36 PM 59.0333 -109.3500 219° Southwest 470 541 36,000  Level Edmonton Center
Mon 02:37:36 PM 58.9333 -109.5000 218° Southwest 470 541 36,000  Level Edmonton Center
Mon 02:38:36 PM 58.8167 -109.6500 214° Southwest 470 541 36,000  Level Edmonton Center
Mon 02:39:36 PM 58.7333 -109.8000 223° Southwest 470 541 36,000  Level Edmonton Center
Mon 02:40:36 PM 58.6167 -109.9833 219° Southwest 470 541 36,000  Level Edmonton Center
Mon 02:41:36 PM 58.5167 -110.1333 218° Southwest 470 541 36,000  Level Edmonton Center
Mon 02:42:36 PM 58.4000 -110.2833 214° Southwest 470 541 36,000  Level Edmonton Center
Mon 02:43:36 PM 58.3000 -110.4500 221° Southwest 470 541 36,000  Level Edmonton Center
Mon 02:44:36 PM 58.2000 -110.6000 218° Southwest 470 541 36,000  Level Edmonton Center
Mon 02:45:36 PM 58.0833 -110.7667 217° Southwest 470 541 36,000  Level Edmonton Center
Mon 02:46:36 PM 57.9833 -110.9167 219° Southwest 480 552 36,000  Level Edmonton Center
Mon 02:47:36 PM 57.8833 -111.0667 219° Southwest 480 552 36,000  Level Edmonton Center
Mon 02:48:36 PM 57.7667 -111.2333 217° Southwest 480 552 36,000  Level Edmonton Center
Mon 02:49:36 PM 57.6667 -111.3833 219° Southwest 470 541 36,000  Level Edmonton Center
Mon 02:50:36 PM 57.5667 -111.5167 216° Southwest 470 541 36,000  Level Edmonton Center
Mon 02:51:36 PM 57.4500 -111.6500 212° Southwest 460 529 36,000  Level Edmonton Center
Mon 02:52:36 PM 57.3500 -111.8167 222° Southwest 460 529 36,000  Level Edmonton Center
Mon 02:53:36 PM 57.2500 -111.9667 219° Southwest 460 529 36,000  Level Edmonton Center
Mon 02:54:36 PM 57.1333 -112.1000 212° Southwest 470 541 36,000  Level Edmonton Center
Mon 02:55:36 PM 57.0333 -112.2333 216° Southwest 470 541 36,000  Level Edmonton Center
Mon 02:56:36 PM 56.9167 -112.4000 218° Southwest 470 541 36,000  Level Edmonton Center
Mon 02:57:36 PM 56.8333 -112.5333 221° Southwest 470 541 36,000  Level Edmonton Center
Mon 02:58:36 PM 56.7167 -112.6667 212° Southwest 470 541 36,000  Level Edmonton Center
Mon 02:59:36 PM 56.6000 -112.8333 218° Southwest 470 541 36,000  Level Edmonton Center
Mon 03:00:36 PM 56.5000 -112.9667 216° Southwest 470 541 36,000  Level Edmonton Center
Mon 03:01:36 PM 56.3833 -113.0833 209° Southwest 470 541 36,000  Level Edmonton Center
Mon 03:02:36 PM 56.2833 -113.2167 217° Southwest 470 541 36,000  Level Edmonton Center
Mon 03:03:36 PM 56.1667 -113.3833 219° Southwest 470 541 36,000  Level Edmonton Center
Mon 03:04:36 PM 56.0667 -113.5167 217° Southwest 480 552 36,000  Level Edmonton Center
Mon 03:05:36 PM 55.9500 -113.6667 216° Southwest 470 541 36,000  Level Edmonton Center
Mon 03:06:36 PM 55.8333 -113.8000 213° Southwest 470 541 36,000  Level Edmonton Center
Mon 03:07:36 PM 55.7333 -113.9167 213° Southwest 470 541 36,000  Level Edmonton Center
Mon 03:13:01 PM 55.1613 -114.6195 214° Southwest 468 539 36,000  Level FlightAware ADS-B
Mon 03:14:59 PM 54.9492 -114.8713 214° Southwest 467 537 36,000  Level FlightAware ADS-B
Mon 03:15:41 PM 54.8730 -114.9617 214° Southwest 468 539 36,000  Level FlightAware ADS-B
Mon 03:16:16 PM 54.8130 -115.0308 214° Southwest 469 540 36,000  Level FlightAware ADS-B
Mon 03:16:47 PM 54.7574 -115.0959 214° Southwest 470 541 36,000  Level FlightAware ADS-B
Mon 03:17:32 PM 54.6753 -115.1921 214° Southwest 469 540 36,000  Level FlightAware ADS-B
Mon 03:18:16 PM 54.5969 -115.2836 214° Southwest 469 540 36,000  Level FlightAware ADS-B
Mon 03:19:00 PM 54.5352 -115.3542 214° Southwest 470 541 36,000  Level FlightAware ADS-B
Mon 03:19:52 PM 54.4241 -115.4805 214° Southwest 470 541 36,000  Level FlightAware ADS-B
Mon 03:20:36 PM 54.3167 -115.5833 214° Southwest 460 529 36,000  Level Edmonton Center
Mon 03:21:36 PM 54.2333 -115.7167 223° Southwest 460 529 36,000  Level Edmonton Center
Mon 03:22:36 PM 54.1167 -115.8500 214° Southwest 470 541 36,000  Level Edmonton Center
Mon 03:23:36 PM 54.0000 -115.9667 210° Southwest 470 541 36,000  Level Edmonton Center
Mon 03:24:36 PM 53.8667 -116.0833 207° Southwest 470 541 36,000  Level Edmonton Center
Mon 03:25:36 PM 53.7667 -116.2000 215° Southwest 470 541 36,000  Level Edmonton Center
Mon 03:26:36 PM 53.6667 -116.2833 206° Southwest 480 552 36,000  Level Edmonton Center
Mon 03:27:36 PM 53.5333 -116.4167 211° Southwest 470 541 36,000  Level Edmonton Center
Mon 03:28:36 PM 53.4167 -116.5000 203° Southwest 470 541 36,000  Level Edmonton Center
Mon 03:29:36 PM 53.3000 -116.6333 214° Southwest 470 541 36,000  Level Edmonton Center
Mon 03:30:36 PM 53.1833 -116.7167 203° Southwest 470 541 36,000  Level Edmonton Center
Mon 03:31:36 PM 53.0667 -116.8500 214° Southwest 470 541 36,000  Level Edmonton Center
Mon 03:32:36 PM 52.9667 -116.9333 207° Southwest 470 541 36,000  Level Edmonton Center
Mon 03:33:36 PM 52.8333 -117.0667 211° Southwest 470 541 36,000  Level Edmonton Center
Mon 03:34:36 PM 52.7333 -117.1500 207° Southwest 470 541 36,000  Level Edmonton Center
Mon 03:35:36 PM 52.6167 -117.2667 211° Southwest 470 541 36,000  Level Edmonton Center
Mon 03:36:18 PM 52.5500 -117.2833 189° South 470 541 36,000  Level Vancouver Center
Mon 03:37:18 PM 52.4333 -117.3833 208° Southwest 480 552 36,000  Level Vancouver Center
Mon 03:38:18 PM 52.3167 -117.4833 208° Southwest 480 552 36,000  Level Vancouver Center
Mon 03:39:18 PM 52.2000 -117.5833 208° Southwest 480 552 36,000  Level Vancouver Center
Mon 03:40:18 PM 52.0833 -117.7000 212° Southwest 480 552 36,000  Level Vancouver Center
Mon 03:41:18 PM 51.9667 -117.8000 208° Southwest 480 552 36,000  Level Vancouver Center
Mon 03:42:18 PM 51.8500 -117.9000 208° Southwest 480 552 36,000  Level Vancouver Center
Mon 03:43:18 PM 51.7333 -118.0000 208° Southwest 480 552 36,000  Level Vancouver Center
Mon 03:44:18 PM 51.6167 -118.1167 212° Southwest 480 552 36,000  Level Vancouver Center
Mon 03:45:18 PM 51.5000 -118.2167 208° Southwest 480 552 36,000  Level Vancouver Center
Mon 03:46:18 PM 51.3833 -118.3167 208° Southwest 480 552 36,000  Level Vancouver Center
Mon 03:47:18 PM 51.2667 -118.4000 204° Southwest 480 552 36,000  Level Vancouver Center
Mon 03:48:18 PM 51.1500 -118.5000 208° Southwest 480 552 36,000  Level Vancouver Center
Mon 03:49:18 PM 51.0333 -118.6167 212° Southwest 480 552 36,000  Level Vancouver Center
Mon 03:50:18 PM 50.9167 -118.7167 208° Southwest 480 552 36,000  Level Vancouver Center
Mon 03:51:18 PM 50.8000 -118.8000 204° Southwest 480 552 36,000  Level Vancouver Center
Mon 03:52:18 PM 50.6667 -118.9000 205° Southwest 480 552 36,000  Level Vancouver Center
Mon 03:53:18 PM 50.5500 -118.9667 200° South 480 552 36,000  Level Vancouver Center
Mon 03:54:18 PM 50.4167 -119.0333 198° South 480 552 36,000  Level Vancouver Center
Mon 03:55:18 PM 50.3000 -119.1000 200° South 480 552 36,000 450 Level Vancouver Center
Mon 03:56:18 PM 50.1667 -119.1333 189° South 490 564 36,900 500 Climbing Vancouver Center
Mon 03:57:18 PM 50.0333 -119.2000 198° South 490 564 37,000 33 Climbing Vancouver Center
Mon 03:59:18 PM 49.7667 -119.2667 189° South 480 552 37,000  Level Vancouver Center
Mon 04:00:18 PM 49.6333 -119.3167 194° South 480 552 37,000  Level Vancouver Center
Mon 04:05:39 PM 48.9477 -119.5930 193° South 483 556 37,000  Level FlightAware ADS-B
Mon 04:06:11 PM 48.8784 -119.6170 193° South 484 557 37,000  Level FlightAware ADS-B
Mon 04:06:41 PM 48.8117 -119.6400 193° South 483 556 37,000  Level FlightAware ADS-B
Mon 04:07:13 PM 48.7418 -119.6650 193° South 482 555 37,000  Level FlightAware ADS-B
Mon 04:07:44 PM 48.6752 -119.6880 193° South 481 554 37,000  Level FlightAware ADS-B
Mon 04:08:00 PM 48.6408 -119.6998 193° South 480 552 37,000  Level FlightAware ADS-B
Mon 04:08:14 PM 48.6103 -119.7100 193° South 481 554 37,000  Level FlightAware ADS-B
Mon 04:08:35 PM 48.5655 -119.7260 193° South 481 554 37,000  Level FlightAware ADS-B (CYVR)
Mon 04:08:44 PM 48.5454 -119.7330 193° South 481 554 37,000  Level FlightAware ADS-B
Mon 04:09:07 PM 48.4962 -119.7497 193° South 481 554 37,000  Level FlightAware ADS-B
Mon 04:09:17 PM 48.4748 -119.7570 193° South 481 554 37,000  Level FlightAware ADS-B
Mon 04:09:47 PM 48.4082 -119.7790 193° South 480 552 37,000  Level FlightAware ADS-B
Mon 04:10:18 PM 48.3411 -119.8020 193° South 480 552 37,000  Level FlightAware ADS-B
Mon 04:10:23 PM 48.3399 -119.8032 193° South 480 552 37,000  Level FlightAware ADS-B
Mon 04:10:49 PM 48.2753 -119.8250 193° South 481 554 37,000  Level FlightAware ADS-B
Mon 04:11:19 PM 48.2096 -119.8470 193° South 483 556 37,000  Level FlightAware ADS-B
Mon 04:11:49 PM 48.1439 -119.8700 193° South 483 556 37,000  Level FlightAware ADS-B
Mon 04:12:20 PM 48.0771 -119.8920 193° South 484 557 37,000  Level FlightAware ADS-B
Mon 04:12:35 PM 48.0448 -119.9035 193° South 481 554 37,000  Level FlightAware ADS-B (CYVR)
Mon 04:12:50 PM 48.0103 -119.9150 193° South 484 557 37,000  Level FlightAware ADS-B
Mon 04:13:21 PM 47.9430 -119.9370 193° South 484 557 37,000  Level FlightAware ADS-B
Mon 04:13:27 PM 48.0448 -119.9035 193° South 481 554 37,000  Level FlightAware ADS-B (CYVR)
Mon 04:13:51 PM 47.8773 -119.9590 193° South 484 557 37,000  Level FlightAware ADS-B
Mon 04:14:17 PM 47.8221 -119.9784 193° South 484 557 37,000  Level FlightAware ADS-B
Mon 04:14:22 PM 47.8113 -119.9820 193° South 484 557 37,000  Level FlightAware ADS-B
Mon 04:14:52 PM 47.7452 -120.0040 193° South 485 558 37,000  Level FlightAware ADS-B
Mon 04:14:53 PM 47.7506 -120.0018 193° South 485 558 37,000  Level FlightAware ADS-B
Mon 04:15:23 PM 47.6777 -120.0270 193° South 484 557 37,000  Level FlightAware ADS-B
Mon 04:15:53 PM 47.6117 -120.0480 193° South 485 558 37,000  Level FlightAware ADS-B
Mon 04:15:57 PM 47.6056 -120.0506 193° South 485 558 37,000  Level FlightAware ADS-B
Mon 04:16:23 PM 47.5459 -120.0700 193° South 486 559 37,000  Level FlightAware ADS-B
Mon 04:16:53 PM 47.4794 -120.0920 193° South 486 559 37,000  Level FlightAware ADS-B
Mon 04:17:24 PM 47.4132 -120.1140 192° South 485 558 37,000  Level FlightAware ADS-B
Mon 04:17:54 PM 47.3475 -120.1360 193° South 484 557 37,000  Level FlightAware ADS-B
Mon 04:18:24 PM 47.2815 -120.1570 192° South 485 558 37,000  Level FlightAware ADS-B
Mon 04:18:54 PM 47.2152 -120.1790 193° South 488 562 37,000  Level FlightAware ADS-B
Mon 04:19:24 PM 47.1485 -120.2010 193° South 488 562 37,000  Level FlightAware ADS-B
Mon 04:19:54 PM 47.0823 -120.2220 192° South 486 559 37,000  Level FlightAware ADS-B
Mon 04:20:25 PM 47.0154 -120.2440 192° South 487 560 37,000  Level FlightAware ADS-B
Mon 04:20:56 PM 46.9481 -120.2670 193° South 488 562 37,000  Level FlightAware ADS-B
Mon 04:21:27 PM 46.8784 -120.2890 192° South 487 560 37,000  Level FlightAware ADS-B
Mon 04:22:02 PM 46.8028 -120.3130 192° South 486 559 37,000  Level FlightAware ADS-B
Mon 04:22:32 PM 46.7357 -120.3350 192° South 487 560 37,000  Level FlightAware ADS-B
Mon 04:23:04 PM 46.6656 -120.3570 192° South 488 562 37,000  Level FlightAware ADS-B
Mon 04:23:34 PM 46.5993 -120.3780 192° South 487 560 37,000  Level FlightAware ADS-B
Mon 04:24:09 PM 46.5214 -120.4030 192° South 488 562 37,000  Level FlightAware ADS-B
Mon 04:24:49 PM 46.4339 -120.4310 192° South 487 560 37,000  Level FlightAware ADS-B
Mon 04:26:00 PM 46.2773 -120.4800 192° South 487 560 37,000  Level FlightAware ADS-B
Mon 04:26:42 PM 46.1860 -120.5096 193° South 487 560 37,000  Level FlightAware ADS-B (SBFL / FLN)
Mon 04:27:03 PM 46.1399 -120.5240 192° South 487 560 37,000  Level FlightAware ADS-B
Mon 04:27:20 PM 46.1039 -120.5352 192° South 487 560 37,000  Level FlightAware ADS-B (SBFL / FLN)
Mon 04:28:02 PM 46.0123 -120.5644 192° South 491 565 37,000  Level FlightAware ADS-B (SBFL / FLN)
Mon 04:28:39 PM 45.9276 -120.5907 192° South 490 564 37,000  Level FlightAware ADS-B (SBFL / FLN)
Mon 04:29:21 PM 45.8341 -120.6197 192° South 490 564 37,000  Level FlightAware ADS-B (SBFL / FLN)
Mon 04:30:01 PM 45.7459 -120.6470 192° South 489 563 37,000  Level FlightAware ADS-B (SBFL / FLN)
Mon 04:30:32 PM 45.6775 -120.6681 192° South 489 563 37,000  Level FlightAware ADS-B (SBFL / FLN)
Mon 04:31:16 PM 45.5806 -120.6977 192° South 491 565 37,000  Level FlightAware ADS-B (SBFL / FLN)
Mon 04:32:37 PM 45.3994 -120.7535 192° South 492 566 37,000  Level FlightAware ADS-B (SBFL / FLN)
Mon 04:33:16 PM 45.3132 -120.7800 192° South 489 563 37,000  Level FlightAware ADS-B (SBFL / FLN)
Mon 04:33:58 PM 45.2203 -120.8083 192° South 489 563 37,000  Level FlightAware ADS-B (SBFL / FLN)
Mon 04:34:41 PM 45.1239 -120.8372 192° South 490 564 37,000  Level FlightAware ADS-B (SBFL / FLN)
Mon 04:35:20 PM 45.0389 -120.8633 192° South 491 565 37,000  Level FlightAware ADS-B (SBFL / FLN)
Mon 04:39:02 PM 44.5449 -121.0107 192° South 492 566 37,000  Level FlightAware ADS-B (SBFL / FLN)
Mon 04:39:42 PM 44.4548 -121.0378 192° South 496 571 37,000  Level FlightAware ADS-B (SBFL / FLN)
Mon 04:40:21 PM 44.3673 -121.0637 192° South 494 568 37,000  Level FlightAware ADS-B (SBFL / FLN)
Mon 04:41:04 PM 44.2891 -121.0866 192° South 490 564 37,000  Level FlightAware ADS-B (SBFL / FLN)
Mon 04:43:41 PM 43.9275 -121.1918 192° South 489 563 37,000  Level FlightAware ADS-B (SBFL / FLN)
Mon 04:44:21 PM 43.8455 -121.2155 192° South 486 559 37,000  Level FlightAware ADS-B (SBFL / FLN)
Mon 04:45:02 PM 43.7460 -121.2444 192° South 492 566 37,000  Level FlightAware ADS-B (SBFL / FLN)
Mon 04:45:37 PM 43.6673 -121.2670 192° South 496 571 37,000  Level FlightAware ADS-B (SBFL / FLN)
Mon 04:46:20 PM 43.5707 -121.2949 192° South 494 568 37,000  Level FlightAware ADS-B (SBFL / FLN)
Mon 04:47:03 PM 43.4755 -121.3225 192° South 490 564 37,000  Level FlightAware ADS-B (SBFL / FLN)
Mon 04:47:41 PM 43.3898 -121.3471 192° South 488 562 37,000  Level FlightAware ADS-B (SBFL / FLN)
Mon 04:49:10 PM 43.2211 -121.3936 192° South 488 562 37,000  Level Seattle Center
Mon 04:50:11 PM 43.0639 -121.4381 192° South 482 555 37,000  Level Seattle Center
Mon 04:51:12 PM 42.9339 -121.4753 192° South 479 551 37,000  Level Seattle Center
Mon 04:52:13 PM 42.8031 -121.5133 192° South 480 552 37,000  Level Seattle Center
Mon 04:53:14 PM 42.6747 -121.5489 192° South 474 545 37,000  Level Seattle Center
Mon 04:54:15 PM 42.5444 -121.5842 191° South 475 547 37,000  Level Seattle Center
Mon 04:55:16 PM 42.4161 -121.6200 192° South 473 544 37,000  Level Seattle Center
Mon 04:56:17 PM 42.2872 -121.6569 192° South 471 542 37,000  Level Seattle Center
Mon 04:57:17 PM 42.1583 -121.6922 191° South 468 539 37,000  Level Seattle Center
Mon 04:58:18 PM 42.0281 -121.7272 191° South 468 539 37,000  Level Seattle Center
Mon 04:59:19 PM 41.8978 -121.7631 192° South 468 539 37,000  Level Seattle Center
Mon 05:00:20 PM 41.7675 -121.7986 192° South 471 542 37,000  Level Seattle Center
Mon 05:06:53 PM 40.9069 -122.0517 193° South 474 545 37,000  Level FlightAware ADS-B
Mon 05:07:31 PM 40.8751 -122.0613 192° South 472 543 37,000  Level FlightAware ADS-B (KSAC)
Mon 05:08:13 PM 40.7364 -122.1028 193° South 470 541 37,000  Level FlightAware ADS-B
Mon 05:08:43 PM 40.6732 -122.1218 193° South 469 540 37,000  Level FlightAware ADS-B
Mon 05:09:13 PM 40.6091 -122.1408 193° South 468 539 37,000  Level FlightAware ADS-B
Mon 05:09:45 PM 40.5465 -122.1597 193° South 466 536 37,000  Level FlightAware ADS-B
Mon 05:10:15 PM 40.4793 -122.1798 193° South 465 535 37,000  Level FlightAware ADS-B
Mon 05:10:45 PM 40.4167 -122.1984 193° South 463 533 37,000  Level FlightAware ADS-B
Mon 05:11:15 PM 40.3532 -122.2169 193° South 461 531 37,000  Level FlightAware ADS-B
Mon 05:11:53 PM 40.2741 -122.2401 193° South 459 528 37,000  Level FlightAware ADS-B
Mon 05:12:15 PM 40.2282 -122.2535 193° South 458 527 37,000  Level FlightAware ADS-B
Mon 05:12:38 PM 40.1935 -122.2640 193° South 458 527 37,000  Level FlightAware ADS-B
Mon 05:13:20 PM 40.1093 -122.2891 192° South 458 527 37,000  Level FlightAware ADS-B (KSAC)
Mon 05:14:21 PM 39.9967 -122.3218 192° South 458 527 37,000  Level FlightAware ADS-B (KSAC)
Mon 05:15:00 PM 39.9115 -122.3466 192° South 457 526 37,000  Level FlightAware ADS-B (KSAC)
Mon 05:15:41 PM 39.8211 -122.3730 192° South 456 525 37,000  Level FlightAware ADS-B (KSAC)
Mon 05:16:20 PM 39.7390 -122.3970 192° South 457 526 37,000  Level FlightAware ADS-B (KSAC)
Mon 05:18:01 PM 39.5315 -122.4575 192° South 456 525 37,000  Level FlightAware ADS-B (KSAC)
Mon 05:18:40 PM 39.4496 -122.4807 192° South 457 526 37,000  Level FlightAware ADS-B (KSAC)
Mon 05:19:20 PM 39.3653 -122.5048 192° South 455 524 37,000  Level FlightAware ADS-B (KSAC)
Mon 05:20:00 PM 39.2846 -122.5278 192° South 453 521 37,000  Level FlightAware ADS-B (KSAC)
Mon 05:20:40 PM 39.2015 -122.5516 191° South 453 521 37,000 -750 Level FlightAware ADS-B (KSAC)
Mon 05:21:20 PM 39.1171 -122.5676 186° South 462 532 36,000 -2,250 Descending FlightAware ADS-B (KSAC)
Mon 05:22:00 PM 39.0281 -122.5775 184° South 460 529 34,000 -2,593 Descending FlightAware ADS-B (KSAC)
Mon 05:22:41 PM 38.9454 -122.5847 184° South 444 511 32,500 -2,430 Descending FlightAware ADS-B (KSAC)
Mon 05:23:19 PM 38.8739 -122.5913 183° South 439 505 30,800 -3,038 Descending FlightAware ADS-B (KSAC)
Mon 05:24:00 PM 38.7910 -122.5982 183° South 442 509 28,500 -3,300 Descending FlightAware ADS-B (KSAC)
Mon 05:24:39 PM 38.7106 -122.6046 183° South 446 513 26,400 -2,557 Descending FlightAware ADS-B (KSAC)
Mon 05:26:02 PM 38.5385 -122.6190 183° South 446 513 23,300 -2,656 Descending FlightAware ADS-B (KSAC)
Mon 05:26:41 PM 38.4544 -122.6261 183° South 453 521 21,000 -3,418 Descending FlightAware ADS-B (KSAC)
Mon 05:27:21 PM 38.3531 -122.6348 183° South 449 517 18,800 -2,506 Descending FlightAware ADS-B (KSAC)
Mon 05:28:00 PM 38.2734 -122.6417 183° South 443 510 17,700 -2,025 Descending FlightAware ADS-B (KSAC)
Mon 05:28:41 PM 38.2062 -122.6474 183° South 437 503 16,100 -2,296 Descending FlightAware ADS-B (KSAC)
Mon 05:29:21 PM 38.1313 -122.6532 183° South 422 486 14,600 -2,025 Descending FlightAware ADS-B (KSAC)
Mon 05:30:01 PM 38.0613 -122.6591 183° South 404 465 13,400 -1,185 Descending FlightAware ADS-B (KSAC)
Mon 05:30:42 PM 37.9806 -122.6650 183° South 383 441 13,000 -583 Descending FlightAware ADS-B (KSAC)
Mon 05:31:13 PM 37.9152 -122.6425 151° Southeast 352 405 12,700 -160 Descending FlightAware ADS-B (EPLL / LCJ)
Mon 05:31:57 PM 37.8560 -122.5903 144° Southeast 355 409 12,800  Climbing FlightAware ADS-B (EPLL / LCJ)
Mon 05:32:06 PM 37.8447 -122.5790 144° Southeast 353 406 12,700 -1,421 Descending FlightAware ADS-B
Mon 05:32:35 PM 37.8080 -122.5451 144° Southeast 346 398 11,900 -1,500 Descending FlightAware ADS-B (EPLL / LCJ)
Mon 05:33:06 PM 37.7659 -122.5070 144° Southeast 343 395 11,200 -1,143 Descending FlightAware ADS-B
Mon 05:33:38 PM 37.7298 -122.4736 144° Southeast 333 383 10,700 -833 Descending FlightAware ADS-B (EPLL / LCJ)
Mon 05:33:42 PM 37.7203 -122.4660 144° Southeast 342 394 10,700 133 Level FlightAware ADS-B
Mon 05:34:23 PM 37.6735 -122.4230 144° Southeast 304 350 10,800 83 Climbing FlightAware ADS-B
Mon 05:34:54 PM 37.6395 -122.3930 144° Southeast 288 331 10,800  Level FlightAware ADS-B
Mon 05:35:12 PM 37.6200 -122.3760 151° Southeast 286 329 10,800  Level FlightAware ADS-B
Mon 05:35:17 PM 37.6188 -122.3753 153° Southeast 285 328 10,800  Level FlightAware ADS-B (EPLL / LCJ)
Mon 05:35:22 PM 37.6084 -122.3690 154° Southeast 284 327 10,800 -1,029 Level FlightAware ADS-B
Mon 05:35:52 PM 37.5740 -122.3470 153° Southeast 264 304 10,200 -1,412 Descending FlightAware ADS-B
Mon 05:35:56 PM 37.5713 -122.3451 153° Southeast 263 303 10,000 -1,875 Descending FlightAware ADS-B (EPLL / LCJ)
Mon 05:36:08 PM 37.5570 -122.3360 153° Southeast 260 299 9,700 -1,800 Descending FlightAware ADS-B
Mon 05:36:16 PM 37.5481 -122.3307 153° Southeast 259 298 9,400 -2,000 Descending FlightAware ADS-B (EPLL / LCJ)
Mon 05:36:23 PM 37.5407 -122.3260 154° Southeast 258 297 9,200 -1,909 Descending FlightAware ADS-B
Mon 05:36:38 PM 37.5242 -122.3160 155° Southeast 258 297 8,700 -1,935 Descending FlightAware ADS-B
Mon 05:36:54 PM 37.5076 -122.3060 155° Southeast 254 292 8,200 -1,941 Descending FlightAware ADS-B
Mon 05:37:12 PM 37.4877 -122.2950 156° South 247 284 7,600 -1,778 Descending FlightAware ADS-B
Mon 05:37:21 PM 37.4792 -122.2900 153° Southeast 244 281 7,400 -1,500 Descending FlightAware ADS-B
Mon 05:37:24 PM 37.4762 -122.2880 150° Southeast 242 278 7,300 -3,000 Descending FlightAware ADS-B
Mon 05:37:27 PM 37.4734 -122.2850 142° Southeast 240 276 7,100 -3,000 Descending FlightAware ADS-B
Mon 05:37:30 PM 37.4708 -122.2830 136° Southeast 239 275 7,000 -2,000 Descending FlightAware ADS-B
Mon 05:37:33 PM 37.4684 -122.2800 131° Southeast 238 274 6,900 -1,714 Descending FlightAware ADS-B
Mon 05:37:37 PM 37.4658 -122.2740 124° Southeast 237 273 6,800 -1,600 Descending FlightAware ADS-B
Mon 05:37:48 PM 37.4604 -122.2620 117° Southeast 233 268 6,500 -1,800 Descending FlightAware ADS-B
Mon 05:37:57 PM 37.4560 -122.2510 116° Southeast 231 266 6,200 -1,500 Descending FlightAware ADS-B
Mon 05:38:12 PM 37.4488 -122.2330 117° Southeast 225 259 5,900 -1,200 Descending FlightAware ADS-B
Mon 05:38:27 PM 37.4416 -122.2160 118° Southeast 220 253 5,600 -1,286 Descending FlightAware ADS-B
Mon 05:38:40 PM 37.4355 -122.2010 118° Southeast 219 252 5,300 -1,304 Descending FlightAware ADS-B
Mon 05:38:50 PM 37.4306 -122.1900 117° Southeast 217 250 5,100 -1,200 Descending FlightAware ADS-B
Mon 05:38:55 PM 37.4285 -122.1850 111° Southeast 214 246 5,000 -1,200 Descending FlightAware ADS-B
Mon 05:39:00 PM 37.4274 -122.1780 102° East 210 242 4,900 -1,500 Descending FlightAware ADS-B
Mon 05:39:03 PM 37.4272 -122.1750 96° East 208 239 4,800 -2,250 Descending FlightAware ADS-B
Mon 05:39:08 PM 37.4275 -122.1690 81° East 202 232 4,600 -1,500 Descending FlightAware ADS-B
Mon 05:39:11 PM 37.4283 -122.1660 73° East 199 229 4,600 -857 Level FlightAware ADS-B
Mon 05:39:15 PM 37.4295 -122.1610 66° East 195 224 4,500 -1,000 Descending FlightAware ADS-B
Mon 05:39:17 PM 37.4297 -122.1600 59° Northeast 191 220 4,500 -1,500 Level FlightAware ADS-B (EPLL / LCJ)
Mon 05:39:19 PM 37.4317 -122.1580 54° Northeast 189 217 4,400 -2,000 Descending FlightAware ADS-B
Mon 05:39:23 PM 37.4341 -122.1540 43° Northeast 185 213 4,300 -750 Descending FlightAware ADS-B
Mon 05:39:27 PM 37.4367 -122.1520 33° Northeast 181 208 4,300 -750 Level FlightAware ADS-B
Mon 05:39:31 PM 37.4393 -122.1500 28° Northeast 179 206 4,200 -1,714 Descending FlightAware ADS-B
Mon 05:39:34 PM 37.4417 -122.1490 21° North 178 205 4,100 -1,000 Descending FlightAware ADS-B
Mon 05:39:37 PM 37.4444 -122.1480 18° North 177 204 4,100 -1,000 Level FlightAware ADS-B
Mon 05:39:46 PM 37.4517 -122.1450 15° North 175 201 3,900 -1,385 Descending FlightAware ADS-B
Mon 05:39:50 PM 37.4544 -122.1440 11° North 173 199 3,800 -857 Descending FlightAware ADS-B
Mon 05:39:53 PM 37.4568 -122.1440 North 173 199 3,800 -750 Level FlightAware ADS-B
Mon 05:39:58 PM 37.4611 -122.1440 359° North 172 198 3,700 -1,500 Descending FlightAware ADS-B
Mon 05:40:01 PM 37.4635 -122.1440 356° North 172 198 3,600 -1,286 Descending FlightAware ADS-B
Mon 05:40:12 PM 37.4721 -122.1450 352° North 178 205 3,400 -923 Descending FlightAware ADS-B
Mon 05:40:14 PM 37.4734 -122.1455 352° North 179 206 3,400 -750 Level FlightAware ADS-B (EPLL / LCJ)
Mon 05:40:28 PM 37.4850 -122.1480 352° North 178 205 3,200 -900 Descending FlightAware ADS-B
Mon 05:40:34 PM 37.4893 -122.1483 352° North 177 204 3,100 -800 Descending FlightAware ADS-B (EPLL / LCJ)
Mon 05:40:43 PM 37.4973 -122.1500 352° North 178 205 3,000 -923 Descending FlightAware ADS-B
Mon 05:40:47 PM 37.5009 -122.1500 350° North 177 204 2,900 -750 Descending FlightAware ADS-B
Mon 05:40:51 PM 37.5043 -122.1520 343° North 179 206 2,900 -667 Level FlightAware ADS-B
Mon 05:40:56 PM 37.5079 -122.1540 331° Northwest 182 209 2,800 -667 Descending FlightAware ADS-B
Mon 05:41:00 PM 37.5106 -122.1560 323° Northwest 185 213 2,800 -750 Level FlightAware ADS-B
Mon 05:41:04 PM 37.5134 -122.1590 317° Northwest 186 214 2,700 -750 Descending FlightAware ADS-B
Mon 05:41:08 PM 37.5156 -122.1620 313° West 186 214 2,700 -600 Level FlightAware ADS-B
Mon 05:41:14 PM 37.5191 -122.1670 310° West 185 213 2,600 -600 Descending FlightAware ADS-B
Mon 05:41:18 PM 37.5211 -122.1703 310° West 185 213 2,600 -462 Level FlightAware ADS-B (EPLL / LCJ)
Mon 05:41:27 PM 37.5261 -122.1780 311° West 182 209 2,500 -500 Descending FlightAware ADS-B
Mon 05:41:42 PM 37.5345 -122.1900 311° West 181 208 2,400 -600 Descending FlightAware ADS-B
Mon 05:41:57 PM 37.5429 -122.2010 312° West 179 206 2,200 -667 Descending FlightAware ADS-B
Mon 05:42:09 PM 37.5493 -122.2110 311° West 172 198 2,100 -353 Descending FlightAware ADS-B
Mon 05:42:14 PM 37.5515 -122.2150 306° West 170 196 2,100 -667 Level FlightAware ADS-B
Mon 05:42:18 PM 37.5534 -122.2180 302° West 167 192 2,000 -545 Descending FlightAware ADS-B
Mon 05:42:25 PM 37.5558 -122.2240 298° West 163 188 2,000 -353 Level FlightAware ADS-B
Mon 05:42:35 PM 37.5592 -122.2320 296° West 161 185 1,900 -632 Descending FlightAware ADS-B
Mon 05:42:44 PM 37.5623 -122.2400 295° West 160 184 1,800 -571 Descending FlightAware ADS-B
Mon 05:42:56 PM 37.5659 -122.2500 293° West 160 184 1,700 -783 Descending FlightAware ADS-B
Mon 05:43:07 PM 37.5691 -122.2590 293° West 151 174 1,500 -947 Descending FlightAware ADS-B
Mon 05:43:15 PM 37.5713 -122.2660 293° West 148 170 1,400 -522 Descending FlightAware ADS-B
Mon 05:43:30 PM 37.5755 -122.2780 296° West 148 170 1,300 -316 Descending FlightAware ADS-B
Mon 05:43:34 PM 37.5767 -122.2810 299° West 148 170 1,300 -500 Level FlightAware ADS-B
Mon 05:43:42 PM 37.5794 -122.2870 300° West 149 171 1,200 -1,043 Descending FlightAware ADS-B
Mon 05:43:57 PM 37.5851 -122.2980 303° West 150 173 900 -938 Descending FlightAware ADS-B
Mon 05:44:14 PM 37.5909 -122.3100 300° West 143 165 700 -828 Descending FlightAware ADS-B
Mon 05:44:26 PM 37.5950 -122.3190 299° West 141 162 500 -857 Descending FlightAware ADS-B
Mon 05:44:42 PM 37.6000 -122.3300 298° West 137 158 300 -750 Descending FlightAware ADS-B
Mon 05:44:58 PM 37.6046 -122.3410 299° West 136 157 100 -750 Descending FlightAware ADS-B
Mon 05:45:27 PM 37.6133 -122.3620 298° West 135 155 -207 Descending FlightAware ADS-B

Login

Don't have an account? Register now (free) for customized features, flight alerts, and more!